カシュガル の空港の天気 - METARとTAF

カシュガル空港 ( ZWSH / KHG ) - 中国 新疆ウイグル自治区カシュガル市
飛行場実況気象(Metar)
観測時間10/22 20:00 CST (10/22 12:00 UTC)
風向・風速南 2m/s
視程10km以上
天気現象
少しの雲 雲底高度 1220m
気温18℃
湿度18%
気圧1016hPa
METARZWSH 221200Z 18002MPS 140V230 9999 FEW040 18/M07 Q1016 NOSIG
過去の天気等 Google飛行場航空写真 Wunderground天気予報

過去48時間のMETAR

飛行場予報(TAF)
発表時間: 10/22 17:06 CST (10/22 09:06 UTC)
予報対象時間: 22日20時 CST ~ 23日20時 CST
風向・風速北西 5m/s
視程10km以上
なし
23日12時 CST ~ 23日13時 CST に徐々に
風向・風速東 4m/s
TAF ZWSH 220906Z 2212/2312 32005MPS CAVOK TX20/2309Z TN06/2301Z
BECMG 2304/2305 08004MPS